Time;durP1;ratioP1;P1;durP2;ratioP2;P2;SDS_P1;SDS_P2;PMS_P1;PMS_P2;Temp;Humidity;BMP_temperature;BMP_pressure;BME280_temperature;BME280_humidity;BME280_pressure;Samples;Min_cycle;Max_cycle;Signal;HPM_P1;HPM_P2
2022/02/15 00:01:58;;;;;;;2.30;0.55;;;;;;;6.44;74.67;99817.50;4972473;28;20046;-83
2022/02/15 00:04:26;;;;;;;4.43;1.40;;;;;;;6.44;74.62;99820.09;4974956;28;20500;-83
2022/02/15 00:06:55;;;;;;;3.45;0.88;;;;;;;6.47;74.63;99832.22;4971069;28;20053;-85
2022/02/15 00:09:21;;;;;;;4.85;0.95;;;;;;;6.43;74.55;99822.72;4951176;28;20053;-82
2022/02/15 00:11:49;;;;;;;3.30;0.60;;;;;;;6.46;74.58;99839.16;4955777;28;20046;-83
2022/02/15 00:14:17;;;;;;;2.88;0.68;;;;;;;6.50;74.31;99832.19;4965907;28;20050;-83
2022/02/15 00:16:43;;;;;;;3.95;0.90;;;;;;;6.51;74.05;99822.69;4968797;28;20050;-83
2022/02/15 00:19:11;;;;;;;2.55;0.80;;;;;;;6.51;74.30;99833.94;4971475;28;20054;-82
2022/02/15 00:21:37;;;;;;;8.80;2.05;;;;;;;6.51;74.41;99851.28;4952935;28;20118;-81
2022/02/15 00:24:04;;;;;;;1.95;0.50;;;;;;;6.54;74.15;99828.69;4960793;28;20046;-82
2022/02/15 00:26:31;;;;;;;3.28;0.80;;;;;;;6.52;74.55;99827.88;4993597;28;20528;-82
2022/02/15 00:28:57;;;;;;;3.75;1.75;;;;;;;6.57;74.07;99836.50;4977433;28;20050;-81
2022/02/15 00:31:24;;;;;;;4.50;0.82;;;;;;;6.55;74.27;99834.78;4970165;28;20054;-82
2022/02/15 00:33:55;;;;;;;4.63;0.90;;;;;;;6.54;74.21;99833.06;4957210;28;20154;-82
2022/02/15 00:36:26;;;;;;;2.45;1.00;;;;;;;6.51;74.39;99844.34;4961500;28;20095;-81
2022/02/15 00:38:54;;;;;;;1.30;0.90;;;;;;;6.55;74.59;99848.63;4994283;28;20070;-84
2022/02/15 00:41:21;;;;;;;12.48;1.10;;;;;;;6.55;74.45;99833.03;4952787;28;20054;-84
2022/02/15 00:43:49;;;;;;;5.95;0.88;;;;;;;6.61;74.46;99834.75;4960851;28;20053;-82
2022/02/15 00:46:16;;;;;;;2.65;0.70;;;;;;;6.57;74.79;99854.72;4966672;28;20502;-83
2022/02/15 00:48:43;;;;;;;4.78;0.90;;;;;;;6.54;74.77;99856.44;4977869;28;20224;-81
2022/02/15 00:51:10;;;;;;;3.42;0.85;;;;;;;6.46;75.30;99862.53;4971317;28;20046;-83
2022/02/15 00:53:37;;;;;;;5.75;1.60;;;;;;;6.45;75.47;99859.97;4950451;28;20050;-84
2022/02/15 00:56:06;;;;;;;6.60;2.05;;;;;;;6.42;75.80;99858.22;4956525;28;20057;-83
2022/02/15 00:58:33;;;;;;;4.47;1.20;;;;;;;6.37;76.15;99854.78;4972887;28;20058;-83
2022/02/15 01:01:01;;;;;;;2.40;0.95;;;;;;;6.36;76.34;99860.88;4962912;28;20524;-82
2022/02/15 01:03:28;;;;;;;11.48;2.15;;;;;;;6.35;76.20;99851.34;4956641;28;20050;-82
2022/02/15 01:05:57;;;;;;;7.30;1.63;;;;;;;6.30;76.86;99858.31;4964741;28;20050;-81
2022/02/15 01:08:24;;;;;;;6.20;0.90;;;;;;;6.27;77.21;99861.78;4974379;28;20747;-82
2022/02/15 01:10:51;;;;;;;2.38;1.08;;;;;;;6.23;77.13;99867.88;4973660;28;20046;-82
2022/02/15 01:13:21;;;;;;;3.97;0.88;;;;;;;6.26;77.32;99873.03;4966881;28;20042;-84
2022/02/15 01:15:48;;;;;;;7.43;1.52;;;;;;;6.27;77.26;99879.09;4953817;28;20210;-82
2022/02/15 01:18:16;;;;;;;7.05;1.08;;;;;;;6.24;77.75;99882.56;4950218;28;20153;-83
2022/02/15 01:20:45;;;;;;;1.48;0.88;;;;;;;6.21;77.87;99889.53;4971285;28;20050;-83
2022/02/15 01:23:12;;;;;;;2.55;0.65;;;;;;;6.20;77.84;99887.78;4971176;28;20061;-84
2022/02/15 01:25:38;;;;;;;5.28;1.90;;;;;;;6.19;78.08;99886.94;4947528;28;20159;-83
2022/02/15 01:28:05;;;;;;;3.42;1.35;;;;;;;6.17;77.84;99883.47;4971633;28;20201;-83
2022/02/15 01:30:35;;;;;;;6.32;0.85;;;;;;;6.12;78.31;99875.69;4955836;28;20061;-82
2022/02/15 01:33:02;;;;;;;4.20;0.63;;;;;;;6.08;78.70;99883.50;4933204;28;20073;-83
2022/02/15 01:35:29;;;;;;;5.43;1.33;;;;;;;6.06;79.15;99883.53;4967536;28;20050;-82
2022/02/15 01:37:58;;;;;;;2.58;1.40;;;;;;;6.05;79.65;99878.31;4962342;28;21373;-82
2022/02/15 01:40:25;;;;;;;2.42;0.68;;;;;;;6.08;79.44;99881.75;4969364;28;20062;-83
2022/02/15 01:42:54;;;;;;;3.80;1.05;;;;;;;6.10;79.51;99877.44;4967473;28;20042;-82
2022/02/15 01:45:20;;;;;;;7.07;1.65;;;;;;;6.08;79.68;99889.56;4945065;28;20056;-81
2022/02/15 01:47:48;;;;;;;9.30;1.35;;;;;;;6.02;79.94;99883.50;4951304;28;20046;-83
2022/02/15 01:50:15;;;;;;;4.72;1.10;;;;;;;6.03;80.29;99873.13;4954573;28;20820;-82
2022/02/15 01:52:43;;;;;;;7.63;1.60;;;;;;;6.07;80.19;99887.81;4980596;28;20054;-83
2022/02/15 01:55:15;;;;;;;5.72;2.22;;;;;;;6.01;80.44;99890.47;4954372;28;20050;-83
2022/02/15 01:57:45;;;;;;;3.13;1.25;;;;;;;5.96;80.85;99895.63;4947315;28;20425;-83
2022/02/15 02:00:18;;;;;;;7.80;1.40;;;;;;;5.94;80.98;99891.28;4950796;28;20045;-84
2022/02/15 02:02:47;;;;;;;4.97;2.80;;;;;;;5.92;81.33;99895.66;4978400;28;20046;-84
2022/02/15 02:07:59;;;;;;;10.10;1.75;;;;;;;6.08;80.54;99901.69;4953814;28;20045;-82
2022/02/15 02:10:30;;;;;;;6.63;1.77;;;;;;;6.11;80.65;99912.94;4960615;28;20140;-83
2022/02/15 02:12:57;;;;;;;3.67;1.75;;;;;;;6.10;80.54;99908.63;4983003;28;20128;-83
2022/02/15 02:15:27;;;;;;;6.45;1.90;;;;;;;6.08;81.00;99905.16;4955412;28;20564;-83
2022/02/15 02:17:54;;;;;;;1.92;1.60;;;;;;;6.03;80.99;99913.84;4946378;28;20058;-83
2022/02/15 02:20:27;;;;;;;9.02;2.63;;;;;;;5.99;81.08;99918.16;4953688;28;20382;-83
2022/02/15 02:23:03;;;;;;;4.00;1.75;;;;;;;5.95;81.73;99922.47;4949274;28;20180;-82
2022/02/15 02:25:34;;;;;;;5.43;2.00;;;;;;;5.95;81.98;99919.00;4965674;28;20205;-85
2022/02/15 02:28:04;;;;;;;5.25;2.05;;;;;;;5.93;82.42;99920.72;4954032;28;20046;-82
2022/02/15 02:30:31;;;;;;;6.22;2.47;;;;;;;5.91;82.21;99917.28;4967695;28;20057;-81
2022/02/15 02:32:58;;;;;;;6.88;2.38;;;;;;;5.92;82.51;99927.66;4971526;28;20058;-82
2022/02/15 02:35:28;;;;;;;6.28;2.17;;;;;;;5.95;81.92;99924.22;4953094;28;20046;-82
2022/02/15 02:37:55;;;;;;;2.35;2.15;;;;;;;5.96;82.44;99925.94;4967408;28;20542;-83
2022/02/15 02:40:21;;;;;;;3.08;2.03;;;;;;;5.97;82.10;99918.13;4954819;28;20440;-83
2022/02/15 02:42:48;;;;;;;3.50;2.13;;;;;;;6.02;82.19;99923.34;4965968;28;20046;-82
2022/02/15 02:45:22;;;;;;;7.72;2.88;;;;;;;6.00;82.04;99914.69;4974379;28;20050;-83
2022/02/15 02:47:52;;;;;;;6.32;2.72;;;;;;;6.03;82.11;99929.41;4955520;28;20054;-83
2022/02/15 02:50:25;;;;;;;4.32;2.65;;;;;;;6.04;81.74;99925.97;4945321;28;20038;-83
2022/02/15 02:52:52;;;;;;;7.40;3.17;;;;;;;6.04;81.98;99923.38;4968145;28;20901;-83
2022/02/15 02:55:19;;;;;;;5.97;2.80;;;;;;;6.09;81.37;99919.88;4979814;28;20057;-84
2022/02/15 02:57:45;;;;;;;7.47;3.45;;;;;;;6.08;81.58;99923.34;4972208;28;20934;-83
2022/02/15 03:00:17;;;;;;;5.60;3.80;;;;;;;6.00;81.38;99922.50;4990212;28;20047;-84
2022/02/15 03:02:46;;;;;;;7.53;4.00;;;;;;;5.88;82.20;99925.94;4950434;28;20119;-84
2022/02/15 03:05:16;;;;;;;6.63;3.90;;;;;;;5.82;83.03;99931.16;4973360;28;20054;-83
2022/02/15 03:07:45;;;;;;;8.77;4.20;;;;;;;5.75;83.29;99932.00;4963353;28;20054;-85
2022/02/15 03:10:12;;;;;;;4.45;3.85;;;;;;;5.69;84.29;99932.88;4995065;28;20054;-83
2022/02/15 03:12:44;;;;;;;5.13;4.60;;;;;;;5.67;84.40;99937.22;4956740;28;20144;-82
2022/02/15 03:15:10;;;;;;;6.20;3.83;;;;;;;5.70;84.08;99942.41;4981553;28;21570;-83
2022/02/15 03:17:37;;;;;;;7.40;4.43;;;;;;;5.71;83.94;99940.66;4971511;28;20050;-83
2022/02/15 03:20:04;;;;;;;8.40;5.00;;;;;;;5.71;83.86;99941.56;4971163;28;20096;-82
2022/02/15 03:22:31;;;;;;;8.35;4.70;;;;;;;5.69;83.68;99942.41;4962327;28;20058;-84
2022/02/15 03:24:58;;;;;;;6.03;4.63;;;;;;;5.65;83.82;99945.88;4956773;28;20054;-83
2022/02/15 03:27:25;;;;;;;5.53;4.40;;;;;;;5.61;84.01;99948.47;4947646;28;20060;-83
2022/02/15 03:29:53;;;;;;;8.40;4.80;;;;;;;5.55;84.02;99958.84;4971783;28;20078;-82
2022/02/15 03:32:20;;;;;;;6.68;5.10;;;;;;;5.50;84.45;99964.91;4953820;28;20046;-82
2022/02/15 03:34:57;;;;;;;8.43;5.90;;;;;;;5.54;84.62;99964.03;4965372;28;21231;-82
2022/02/15 03:37:32;;;;;;;8.75;5.28;;;;;;;5.57;84.29;99964.06;4954251;28;20042;-82
2022/02/15 03:39:58;;;;;;;9.43;4.95;;;;;;;5.62;84.05;99964.94;4967764;28;20090;-82
2022/02/15 03:45:10;;;;;;;9.38;5.38;;;;;;;5.60;84.29;99966.66;4973498;28;20039;-82
2022/02/15 03:47:38;;;;;;;10.05;5.47;;;;;;;5.61;84.16;99969.25;4963168;28;21069;-82
2022/02/15 03:50:05;;;;;;;11.40;5.82;;;;;;;5.55;84.46;99974.41;4969008;28;20066;-83
2022/02/15 03:52:32;;;;;;;8.18;5.13;;;;;;;5.52;85.08;99979.63;4956462;28;20744;-81
2022/02/15 03:54:59;;;;;;;7.35;5.18;;;;;;;5.60;84.64;99982.22;4963092;28;20096;-81
2022/02/15 03:57:28;;;;;;;11.73;7.35;;;;;;;5.66;84.82;99983.94;4966540;28;20645;-83
2022/02/15 03:59:55;;;;;;;6.53;5.03;;;;;;;5.73;84.11;99986.56;4964725;28;20502;-82
2022/02/15 04:02:22;;;;;;;7.38;4.85;;;;;;;5.82;83.36;99987.44;4953932;28;20081;-82
2022/02/15 04:04:49;;;;;;;9.30;5.70;;;;;;;5.86;83.02;99989.16;4968553;28;20054;-82
2022/02/15 04:07:16;;;;;;;7.32;4.47;;;;;;;5.88;82.72;99992.59;4957597;28;20050;-82
2022/02/15 04:09:42;;;;;;;10.32;4.75;;;;;;;5.94;82.24;99992.59;4967022;28;20042;-82
2022/02/15 04:12:10;;;;;;;6.80;4.85;;;;;;;6.00;82.03;99996.97;4968215;28;20632;-82
2022/02/15 04:14:38;;;;;;;10.23;4.82;;;;;;;6.01;81.57;99996.97;4971741;28;20058;-82
2022/02/15 04:17:05;;;;;;;12.15;4.65;;;;;;;6.01;81.42;99993.50;4965727;28;20050;-83
2022/02/15 04:19:32;;;;;;;5.50;4.55;;;;;;;6.06;80.95;100002.16;4977541;28;20518;-82
2022/02/15 04:21:59;;;;;;;5.57;4.10;;;;;;;6.07;80.91;100003.91;4982588;28;20080;-83
2022/02/15 04:24:25;;;;;;;9.98;4.97;;;;;;;6.03;81.11;100009.97;4966207;28;20063;-82
2022/02/15 04:26:54;;;;;;;5.72;4.15;;;;;;;6.01;81.21;100007.38;4938851;28;20061;-82
2022/02/15 04:29:26;;;;;;;8.07;4.82;;;;;;;6.01;81.05;100014.28;4966054;28;20088;-84
2022/02/15 04:31:53;;;;;;;4.60;4.10;;;;;;;5.97;81.28;100016.88;4976350;28;20683;-82
2022/02/15 04:34:23;;;;;;;8.63;5.05;;;;;;;5.94;81.85;100022.06;4948934;28;20064;-82
2022/02/15 04:36:49;;;;;;;5.53;4.18;;;;;;;5.97;81.64;100027.25;4968199;28;20076;-84
2022/02/15 04:39:16;;;;;;;5.13;4.47;;;;;;;5.94;81.63;100032.47;4960923;28;20110;-84
2022/02/15 04:41:44;;;;;;;10.70;5.38;;;;;;;5.93;82.12;100037.63;4969317;28;20068;-83
2022/02/15 04:44:12;;;;;;;9.18;4.45;;;;;;;5.94;81.68;100044.56;4941898;28;20050;-83
2022/02/15 04:46:41;;;;;;;4.88;4.38;;;;;;;5.89;82.04;100054.97;4975068;28;20057;-84
2022/02/15 04:49:07;;;;;;;12.07;5.57;;;;;;;5.84;82.28;100061.00;4969844;28;20050;-83
2022/02/15 04:51:34;;;;;;;7.20;4.95;;;;;;;5.74;82.74;100062.75;4949281;28;20137;-83
2022/02/15 04:54:01;;;;;;;8.80;5.72;;;;;;;5.78;83.20;100069.69;4975254;28;20142;-83
2022/02/15 04:56:28;;;;;;;7.40;5.43;;;;;;;5.86;83.17;100072.28;4949688;28;20046;-83
2022/02/15 04:59:02;;;;;;;7.45;5.35;;;;;;;5.91;82.73;100084.41;4931553;28;20057;-84
2022/02/15 05:01:28;;;;;;;11.82;5.97;;;;;;;6.03;82.49;100080.13;4966820;28;20132;-84
2022/02/15 05:03:55;;;;;;;10.93;6.90;;;;;;;6.06;82.34;100078.41;4963352;28;20072;-85
2022/02/15 05:06:22;;;;;;;9.40;5.75;;;;;;;6.10;81.91;100081.84;4960841;28;20720;-83
2022/02/15 05:08:48;;;;;;;10.90;6.13;;;;;;;6.13;82.10;100089.66;4950216;28;20050;-83
2022/02/15 05:11:15;;;;;;;9.15;6.75;;;;;;;6.18;81.90;100087.91;4974063;28;20053;-82
2022/02/15 05:13:42;;;;;;;8.57;6.40;;;;;;;6.20;81.92;100090.50;4963017;28;20147;-84
2022/02/15 05:16:09;;;;;;;9.32;7.25;;;;;;;6.19;82.17;100094.84;4937123;28;20505;-83
2022/02/15 05:18:35;;;;;;;13.32;7.13;;;;;;;6.21;81.84;100097.44;4960330;28;20488;-83
2022/02/15 05:21:02;;;;;;;10.80;7.32;;;;;;;6.24;82.24;100094.84;4976011;28;20042;-82
2022/02/15 05:23:33;;;;;;;11.13;6.22;;;;;;;6.25;82.17;100096.56;4960003;28;20054;-82
2022/02/15 05:25:59;;;;;;;9.52;7.15;;;;;;;6.26;82.05;100096.56;4968714;28;20057;-82
2022/02/15 05:28:26;;;;;;;10.90;7.38;;;;;;;6.25;82.28;100100.03;4983849;28;20046;-82
2022/02/15 05:30:52;;;;;;;13.35;6.93;;;;;;;6.23;82.30;100101.78;4946029;28;20488;-82
2022/02/15 05:33:19;;;;;;;10.13;7.82;;;;;;;6.23;82.73;100103.50;4982677;28;20042;-82
2022/02/15 05:35:48;;;;;;;11.65;7.85;;;;;;;6.25;82.39;100106.97;4965209;28;20399;-82
2022/02/15 05:38:17;;;;;;;11.07;7.78;;;;;;;6.21;82.63;100107.84;4969749;28;20054;-83
2022/02/15 05:40:44;;;;;;;12.60;7.10;;;;;;;6.24;82.54;100110.44;4969898;28;20064;-81
2022/02/15 05:43:13;;;;;;;17.48;7.82;;;;;;;6.21;82.78;100111.31;4948006;28;20050;-82
2022/02/15 05:45:40;;;;;;;16.65;7.68;;;;;;;6.22;82.62;100118.25;4953787;28;20581;-81
2022/02/15 05:48:07;;;;;;;12.10;7.65;;;;;;;6.23;83.14;100114.78;4985143;28;20113;-83
2022/02/15 05:53:27;;;;;;;11.25;7.53;;;;;;;6.21;83.23;100124.28;4974353;28;20061;-82
2022/02/15 05:55:57;;;;;;;12.45;7.40;;;;;;;6.22;83.13;100127.75;4971681;28;20061;-82
2022/02/15 05:58:24;;;;;;;9.88;7.30;;;;;;;6.22;83.23;100130.34;4969600;28;20108;-84
2022/02/15 06:00:51;;;;;;;13.73;8.07;;;;;;;6.21;83.31;100128.63;4964464;28;20054;-86
2022/02/15 06:06:02;;;;;;;13.27;8.27;;;;;;;6.20;83.67;100140.75;4971418;28;20046;-83
2022/02/15 06:08:29;;;;;;;8.63;6.78;;;;;;;6.21;83.48;100142.50;4950383;28;20057;-82
2022/02/15 06:10:59;;;;;;;11.10;8.02;;;;;;;6.20;83.42;100139.91;4974215;28;20047;-85
2022/02/15 06:13:26;;;;;;;10.55;6.85;;;;;;;6.18;83.32;100141.63;4949572;28;20058;-82
2022/02/15 06:15:53;;;;;;;12.45;7.53;;;;;;;6.19;83.33;100136.44;4969301;28;20039;-82
2022/02/15 06:18:24;;;;;;;10.70;7.80;;;;;;;6.20;83.12;100134.69;4971260;28;20092;-85
2022/02/15 06:20:54;;;;;;;10.50;7.47;;;;;;;6.19;83.27;100132.97;4954552;28;20081;-84
2022/02/15 06:23:21;;;;;;;14.18;7.13;;;;;;;6.18;83.09;100147.69;4957663;28;20053;-83
2022/02/15 06:25:49;;;;;;;8.10;6.53;;;;;;;6.19;83.01;100159.84;4962941;28;20074;-83
2022/02/15 06:28:15;;;;;;;14.75;8.18;;;;;;;6.18;82.75;100155.50;4970203;28;20061;-83
2022/02/15 06:30:46;;;;;;;8.95;7.13;;;;;;;6.17;82.93;100156.34;4946746;28;20145;-85
2022/02/15 06:33:12;;;;;;;14.77;8.18;;;;;;;6.20;82.88;100160.69;4967365;28;20461;-83
2022/02/15 06:35:39;;;;;;;9.45;6.82;;;;;;;6.25;82.43;100156.38;4942511;28;20061;-84
2022/02/15 06:38:06;;;;;;;11.13;7.10;;;;;;;6.21;82.72;100165.03;4963247;28;20054;-84
2022/02/15 06:40:33;;;;;;;8.80;6.80;;;;;;;6.26;82.66;100179.75;4935172;28;20062;-83
2022/02/15 06:43:05;;;;;;;10.95;7.90;;;;;;;6.26;82.33;100184.09;4949419;28;20054;-84
2022/02/15 06:45:33;;;;;;;12.30;7.15;;;;;;;6.23;82.42;100186.66;4975430;28;20038;-85
2022/02/15 06:48:03;;;;;;;10.93;7.05;;;;;;;6.22;82.46;100183.22;4932171;28;20054;-84
2022/02/15 06:50:30;;;;;;;9.38;6.57;;;;;;;6.21;82.35;100191.88;4959535;28;20069;-83
2022/02/15 06:52:56;;;;;;;10.32;7.43;;;;;;;6.23;82.34;100197.06;4965821;28;20200;-83
2022/02/15 06:55:24;;;;;;;11.43;7.05;;;;;;;6.21;82.70;100202.28;4975089;28;20046;-84
2022/02/15 06:57:51;;;;;;;10.30;7.00;;;;;;;6.21;82.91;100199.66;4966155;28;20062;-82
2022/02/15 07:00:19;;;;;;;10.55;6.97;;;;;;;6.17;83.10;100195.34;4996616;28;20042;-82
2022/02/15 07:02:47;;;;;;;10.40;7.70;;;;;;;6.16;83.39;100197.94;4974118;28;20042;-82
2022/02/15 07:05:14;;;;;;;10.57;7.03;;;;;;;6.16;83.40;100195.34;4979399;28;20068;-82
2022/02/15 07:07:41;;;;;;;10.02;7.63;;;;;;;6.15;83.14;100202.25;4968535;28;20571;-82
2022/02/15 07:10:10;;;;;;;10.70;7.50;;;;;;;6.16;83.74;100200.53;4964409;28;20058;-82
2022/02/15 07:12:41;;;;;;;14.45;8.32;;;;;;;6.17;83.96;100205.72;4975822;28;20054;-83
2022/02/15 07:15:10;;;;;;;11.68;8.35;;;;;;;6.20;84.00;100204.88;4961905;28;20054;-83
2022/02/15 07:17:42;;;;;;;12.73;8.10;;;;;;;6.19;84.10;100206.63;4957813;28;20054;-82
2022/02/15 07:20:10;;;;;;;11.25;7.68;;;;;;;6.18;84.12;100215.28;4953607;28;20046;-82
2022/02/15 07:22:40;;;;;;;12.75;7.40;;;;;;;6.19;84.28;100219.63;4969707;28;20069;-82
2022/02/15 07:25:07;;;;;;;13.93;8.57;;;;;;;6.19;83.61;100226.53;4944103;28;20046;-82
2022/02/15 07:27:34;;;;;;;13.65;7.75;;;;;;;6.21;83.57;100223.06;4957192;28;20089;-82
2022/02/15 07:30:03;;;;;;;12.77;7.13;;;;;;;6.26;83.11;100230.88;4962334;28;20054;-82
2022/02/15 07:32:29;;;;;;;11.55;7.82;;;;;;;6.26;82.89;100242.13;4953617;28;20054;-80
2022/02/15 07:34:57;;;;;;;10.85;7.72;;;;;;;6.28;82.82;100242.13;4964862;28;20115;-83
2022/02/15 07:37:31;;;;;;;11.85;7.35;;;;;;;6.26;82.71;100241.28;4970013;28;20058;-84
2022/02/15 07:39:58;;;;;;;;;;;;;;;6.26;83.00;100239.53;4974952;28;20066;-83
2022/02/15 07:42:26;;;;;;;9.55;6.85;;;;;;;6.32;82.40;100243.88;4959593;28;19929;-82
2022/02/15 07:44:53;;;;;;;7.75;6.10;;;;;;;6.37;81.83;100247.34;4938050;28;20146;-81
2022/02/15 07:47:19;;;;;;;9.65;6.05;;;;;;;6.42;81.38;100248.22;4988623;28;20046;-83
2022/02/15 07:49:46;;;;;;;11.55;6.97;;;;;;;6.45;81.34;100256.03;4983026;28;20053;-83
2022/02/15 07:52:14;;;;;;;14.02;7.55;;;;;;;6.44;81.20;100254.31;4940207;28;20117;-82
2022/02/15 07:57:24;;;;;;;9.25;6.13;;;;;;;6.52;80.88;100263.84;4963600;28;20808;-82
2022/02/15 07:59:50;;;;;;;10.02;6.90;;;;;;;6.55;80.41;100269.06;4937766;28;20213;-82
2022/02/15 08:02:19;;;;;;;10.43;6.32;;;;;;;6.57;80.37;100272.50;4960886;28;20547;-84
2022/02/15 08:07:37;;;;;;;9.93;6.18;;;;;;;6.62;80.54;100279.47;4967153;28;20046;-82
2022/02/15 08:10:05;;;;;;;7.32;5.68;;;;;;;6.62;79.94;100274.28;4956906;28;20077;-82
2022/02/15 08:12:36;;;;;;;12.95;6.47;;;;;;;6.60;80.11;100277.72;4969184;28;20054;-84
2022/02/15 08:15:04;;;;;;;8.15;5.45;;;;;;;6.58;80.13;100285.53;4945143;28;20069;-82
2022/02/15 08:17:31;;;;;;;9.10;5.47;;;;;;;6.59;80.39;100276.00;4969895;28;20042;-83
2022/02/15 08:19:58;;;;;;;9.60;6.57;;;;;;;6.58;79.98;100275.13;4963197;28;20061;-83
2022/02/15 08:22:25;;;;;;;9.73;6.13;;;;;;;6.59;79.82;100289.00;4961753;28;20061;-82
2022/02/15 08:24:52;;;;;;;11.63;5.25;;;;;;;6.58;80.02;100282.94;4981442;28;20030;-82
2022/02/15 08:27:18;;;;;;;8.75;6.03;;;;;;;6.58;80.38;100279.44;4973849;28;20085;-83
2022/02/15 08:29:45;;;;;;;10.48;5.70;;;;;;;6.63;79.87;100282.94;4967820;28;20351;-82
2022/02/15 08:32:15;;;;;;;6.63;5.90;;;;;;;6.64;79.62;100286.41;4962518;28;20065;-86
2022/02/15 08:34:42;;;;;;;7.70;5.38;;;;;;;6.67;79.87;100286.41;4953510;28;20708;-84
2022/02/15 08:37:12;;;;;;;10.52;5.18;;;;;;;6.75;79.45;100288.16;4973415;28;20042;-83
2022/02/15 08:39:39;;;;;;;7.57;5.60;;;;;;;6.76;79.36;100294.22;4956015;28;20094;-82
2022/02/15 08:42:06;;;;;;;9.43;6.50;;;;;;;6.75;79.61;100295.97;4987970;28;20061;-83
2022/02/15 08:44:35;;;;;;;9.70;6.50;;;;;;;6.79;79.34;100287.28;4964542;28;20057;-82
2022/02/15 08:47:06;;;;;;;8.63;5.75;;;;;;;6.79;79.08;100294.22;4951888;28;20394;-83
2022/02/15 08:49:34;;;;;;;9.52;5.85;;;;;;;6.77;79.21;100308.97;4965577;28;20124;-83
2022/02/15 08:52:05;;;;;;;5.78;4.68;;;;;;;6.78;79.45;100308.97;4971982;28;20123;-84
2022/02/15 08:54:33;;;;;;;8.85;6.25;;;;;;;6.87;79.54;100310.72;4956676;28;20054;-84
2022/02/15 08:56:59;;;;;;;8.52;6.53;;;;;;;6.95;78.75;100308.13;4964667;28;20117;-82
2022/02/15 08:59:26;;;;;;;8.07;5.93;;;;;;;6.95;78.61;100319.38;4970721;28;20072;-83
2022/02/15 09:01:53;;;;;;;9.27;6.15;;;;;;;6.92;78.76;100306.38;4964831;28;20050;-83
2022/02/15 09:04:20;;;;;;;7.18;6.38;;;;;;;6.99;78.11;100309.84;4969297;28;20045;-83
2022/02/15 09:06:47;;;;;;;12.93;6.93;;;;;;;7.06;78.07;100308.97;4954424;28;20046;-82
2022/02/15 09:09:18;;;;;;;7.55;6.38;;;;;;;7.10;78.14;100318.53;4962776;28;20054;-83
2022/02/15 09:11:55;;;;;;;11.60;7.47;;;;;;;7.20;77.97;100316.78;4984924;28;20116;-83
2022/02/15 09:14:23;;;;;;;9.88;6.00;;;;;;;7.27;77.22;100317.63;4946105;28;20223;-83
2022/02/15 09:16:51;;;;;;;7.90;6.30;;;;;;;7.32;77.40;100318.50;4975508;28;20386;-82
2022/02/15 09:19:19;;;;;;;12.05;7.32;;;;;;;7.46;76.93;100318.50;4941123;28;20061;-84
2022/02/15 09:21:50;;;;;;;10.27;6.88;;;;;;;7.52;75.93;100320.22;4971554;28;20050;-82
2022/02/15 09:24:18;;;;;;;8.20;6.28;;;;;;;7.67;75.33;100312.38;4957269;28;21015;-82
2022/02/15 09:26:48;;;;;;;10.05;6.60;;;;;;;7.69;75.09;100317.56;4977735;28;21003;-82
2022/02/15 09:29:17;;;;;;;10.32;6.75;;;;;;;7.81;74.86;100324.47;4952296;28;20046;-83
2022/02/15 09:31:45;;;;;;;8.35;6.45;;;;;;;7.86;73.94;100321.00;4965270;28;20047;-83
2022/02/15 09:34:12;;;;;;;8.80;6.22;;;;;;;7.80;73.97;100312.34;4988096;28;20108;-83
2022/02/15 09:36:40;;;;;;;7.20;5.72;;;;;;;7.83;74.74;100327.97;4951835;28;20039;-82
2022/02/15 09:39:09;;;;;;;8.88;6.15;;;;;;;7.97;73.13;100325.31;4959154;28;20058;-82
2022/02/15 09:41:36;;;;;;;11.88;6.47;;;;;;;8.10;72.79;100327.00;4959351;28;20599;-82
2022/02/15 09:44:06;;;;;;;8.07;5.95;;;;;;;8.16;71.95;100331.31;4950772;28;20054;-82
2022/02/15 09:46:42;;;;;;;10.30;6.35;;;;;;;8.17;72.51;100331.31;4971800;28;20050;-83
2022/02/15 09:51:54;;;;;;;6.95;5.53;;;;;;;8.33;71.91;100329.50;4968394;28;20635;-82
2022/02/15 09:54:23;;;;;;;8.27;6.50;;;;;;;8.44;71.07;100334.66;4969687;28;20442;-82
2022/02/15 09:56:50;;;;;;;7.63;5.65;;;;;;;8.53;70.90;100336.41;4947705;28;20054;-83
2022/02/15 09:59:20;;;;;;;6.60;5.95;;;;;;;8.43;70.70;100330.31;4967963;28;20527;-84
2022/02/15 10:01:48;;;;;;;6.72;5.00;;;;;;;8.31;70.59;100346.03;4946124;28;20671;-83
2022/02/15 10:04:16;;;;;;;6.15;4.82;;;;;;;8.20;71.04;100346.94;4951458;28;20046;-82
2022/02/15 10:06:43;;;;;;;5.40;4.90;;;;;;;8.07;71.76;100348.75;4952759;28;20505;-83
2022/02/15 10:09:10;;;;;;;7.07;4.93;;;;;;;8.04;72.13;100356.53;4959061;28;20521;-83
2022/02/15 10:11:43;;;;;;;8.00;5.07;;;;;;;8.04;71.85;100350.47;4961773;28;20157;-83
2022/02/15 10:14:11;;;;;;;7.10;5.03;;;;;;;8.00;72.17;100351.38;4956995;28;20069;-83
2022/02/15 10:16:52;;;;;;;6.68;4.50;;;;;;;8.01;71.34;100350.50;4934465;28;20425;-84
2022/02/15 10:19:27;;;;;;;12.05;4.55;;;;;;;8.07;71.12;100353.06;4969362;28;20054;-83
2022/02/15 10:22:00;;;;;;;6.28;4.97;;;;;;;8.16;71.11;100346.94;4939686;28;20073;-83
2022/02/15 10:24:31;;;;;;;5.32;4.38;;;;;;;8.21;70.90;100347.81;4954776;28;20973;-83
2022/02/15 10:27:03;;;;;;;11.20;5.18;;;;;;;8.22;70.83;100345.19;4977668;28;20046;-84
2022/02/15 10:29:44;;;;;;;9.98;5.78;;;;;;;8.22;70.21;100347.78;4968433;28;20089;-83
2022/02/15 10:32:20;;;;;;;9.38;4.53;;;;;;;8.13;70.97;100358.25;4961485;28;20053;-83
2022/02/15 10:34:53;;;;;;;6.75;5.10;;;;;;;8.03;71.40;100352.22;4981622;28;20547;-82
2022/02/15 10:37:23;;;;;;;6.55;5.60;;;;;;;7.86;72.09;100354.88;4935603;28;20109;-82
2022/02/15 10:39:57;;;;;;;5.68;4.80;;;;;;;7.59;73.53;100361.88;4960739;28;20062;-82
2022/02/15 10:42:37;;;;;;;5.82;4.65;;;;;;;7.51;75.60;100358.44;4955793;28;20114;-82
2022/02/15 10:45:10;;;;;;;4.60;4.20;;;;;;;7.44;76.26;100380.13;4964962;28;20053;-82
2022/02/15 10:47:45;;;;;;;4.10;3.78;;;;;;;7.45;76.80;100366.25;4967006;28;21672;-82
2022/02/15 10:50:18;;;;;;;6.55;4.38;;;;;;;7.42;77.52;100369.72;4959708;28;20058;-82
2022/02/15 10:52:57;;;;;;;4.97;4.43;;;;;;;7.43;78.22;100380.97;4951248;28;20068;-83
2022/02/15 10:55:26;;;;;;;6.35;4.90;;;;;;;7.52;78.18;100377.50;4950838;28;20507;-83
2022/02/15 10:57:54;;;;;;;6.60;5.13;;;;;;;7.69;77.05;100374.88;4947543;28;20046;-84
2022/02/15 11:00:23;;;;;;;7.63;5.93;;;;;;;7.74;77.17;100363.59;4952873;28;20049;-81
2022/02/15 11:02:52;;;;;;;9.48;6.22;;;;;;;7.92;76.67;100364.41;4946088;28;20161;-82
2022/02/15 11:05:20;;;;;;;6.60;5.35;;;;;;;8.05;74.60;100373.06;4955179;28;20047;-84
2022/02/15 11:07:50;;;;;;;6.90;5.13;;;;;;;8.06;74.61;100367.84;4951884;28;20074;-82
2022/02/15 11:10:23;;;;;;;7.18;5.30;;;;;;;8.00;73.81;100369.63;4969700;28;20489;-82
2022/02/15 11:13:02;;;;;;;8.20;6.60;;;;;;;7.82;75.17;100358.34;4939713;28;20046;-83
2022/02/15 11:15:41;;;;;;;10.82;6.85;;;;;;;7.83;75.69;100361.84;4964586;28;20831;-84
2022/02/15 11:18:13;;;;;;;9.40;7.95;;;;;;;7.99;75.92;100367.88;4969003;28;20046;-83
2022/02/15 11:20:51;;;;;;;10.80;8.82;;;;;;;8.48;74.56;100362.50;4947887;28;20838;-84
2022/02/15 11:23:20;;;;;;;12.85;10.23;;;;;;;8.71;72.98;100361.53;4970413;28;20053;-84
2022/02/15 11:25:52;;;;;;;14.85;10.02;;;;;;;8.66;73.42;100358.94;4952358;28;20046;-84
2022/02/15 11:28:31;;;;;;;13.63;9.45;;;;;;;8.62;73.66;100359.81;4983239;28;20054;-82
2022/02/15 11:31:00;;;;;;;13.35;9.93;;;;;;;8.42;73.62;100368.59;4970443;28;20062;-86
2022/02/15 11:33:33;;;;;;;14.82;10.32;;;;;;;8.27;72.98;100360.81;4933449;28;20146;-84
2022/02/15 11:36:13;;;;;;;13.80;10.00;;;;;;;8.23;73.59;100354.75;4969377;28;20050;-83
2022/02/15 11:38:39;;;;;;;13.40;10.95;;;;;;;8.25;73.60;100363.44;4950276;28;20638;-84
2022/02/15 11:41:14;;;;;;;17.60;10.52;;;;;;;8.49;72.32;100361.63;4956359;28;20043;-83
2022/02/15 11:43:42;;;;;;;13.57;9.35;;;;;;;8.70;71.23;100362.38;4971909;28;20058;-82
2022/02/15 11:46:08;;;;;;;15.48;10.48;;;;;;;8.91;70.12;100356.16;4947892;28;20759;-82
2022/02/15 11:48:44;;;;;;;13.35;10.07;;;;;;;9.08;68.68;100358.66;4954861;28;20047;-83
2022/02/15 11:51:27;;;;;;;12.93;9.93;;;;;;;9.03;68.78;100350.84;4951605;28;20054;-82
2022/02/15 11:54:00;;;;;;;13.50;9.57;;;;;;;9.11;68.35;100358.59;4959326;28;20046;-82
2022/02/15 11:56:26;;;;;;;13.35;9.82;;;;;;;8.88;68.80;100358.81;4964565;28;20390;-83
2022/02/15 11:58:54;;;;;;;11.75;9.98;;;;;;;8.90;68.95;100363.13;4954857;28;21031;-83
2022/02/15 12:01:32;;;;;;;15.13;10.65;;;;;;;9.07;68.19;100347.34;4971014;28;20050;-83